Ana Sayfa
METAR-TAF:

METAR-TAF

Havaalanları :

Bağdat Uluslararası Havaalanı

Bağdat, Irak

Enlem: 33-15-45N, Boylam: 44-14-04E, yükseklik: 35 m

Güncel hava durumu gözlemi

Rapor saat 13:00 UTC de 56 dakika önce yapıldı.
Rüzgar batı/kuzeybatıdan 6 kt, batı ve kuzey/kuzeybatı arasında değişken
Sıcaklık 18°C
Nem 45%
Basınç 1016 hPa
Görüş mesafesi 10 km veya daha fazla
3000 ft yükseklikte parçalı bulutlu

METAR: ORBI 191300Z 30006KT 260V340 9999 SCT030 18/06 Q1016 NOSIG

Saat: 16:56 (13:56 UTC)

Tahmin

Rapor saat 11:00 UTC de 2 saat ve 56 dakika önce yapıldı.
Ayın 19'si saat 12 UTC'den ayın 20'si saat 12 UTC'ye kadar geçerli Tahmin
Rüzgar batı/kuzeybatıdan 8 kt
Görüş mesafesi: 8000 m
3000 ft yükseklikte parçalı bulutlu

TAF: ORBI 191100Z 1912/2012 30008KT 8000 SCT030

4.000'den fazla havaalanı için hava durumu gözlemleri ve tahminleri (METAR ve TAF raporları).

Kullanılabilir istasyonlar harita üzerinde sarı ve kırmızı noktalarla gösterilir.

İstasyonun adını görmek için fareyi noktanın üzerinde gezdirin.

Sonrasında hava gözlem ve tahminlerini görmek için tıklayın.

Haritayı değiştirmek için: yaklaştırmak için siyah artı işaretli yeşil düğmeye ve uzaklaştırmak için de eksi işaretli düğmeye hızla tıklayın; bitişik haritalar için yeşil okları kullanın.


METAR-TAF: